createdAt,value
2022-12-25T00:01:24.532Z,4.25
2022-12-25T00:03:51.901Z,4.16
2022-12-25T00:06:19.276Z,4.09
2022-12-25T00:08:46.101Z,4.00
2022-12-25T00:11:15.058Z,3.98
2022-12-25T00:13:41.888Z,4.02
2022-12-25T00:16:11.395Z,4.07
2022-12-25T00:18:37.785Z,4.10
2022-12-25T00:21:06.775Z,4.19
2022-12-25T00:23:34.666Z,4.16
2022-12-25T00:26:05.690Z,4.19
2022-12-25T00:28:32.069Z,4.25
2022-12-25T00:30:58.483Z,4.24
2022-12-25T00:33:26.274Z,4.32
2022-12-25T00:36:00.253Z,4.35
2022-12-25T00:38:27.796Z,4.33
2022-12-25T00:40:54.920Z,4.39
2022-12-25T00:43:21.386Z,4.37
2022-12-25T00:46:14.313Z,4.35
2022-12-25T00:48:41.482Z,4.34
2022-12-25T00:51:11.083Z,4.31
2022-12-25T00:53:37.512Z,4.19
2022-12-25T00:56:06.647Z,4.11
2022-12-25T00:58:34.402Z,4.07
2022-12-25T01:01:01.199Z,4.06
2022-12-25T01:03:28.350Z,4.05
2022-12-25T01:05:57.346Z,4.00
2022-12-25T01:08:24.098Z,3.86
2022-12-25T01:10:57.913Z,3.87
2022-12-25T01:13:24.564Z,3.91
2022-12-25T01:15:52.784Z,3.99
2022-12-25T01:18:20.433Z,4.04
2022-12-25T01:20:47.090Z,4.04
2022-12-25T01:23:13.759Z,4.06
2022-12-25T01:25:40.600Z,4.07
2022-12-25T01:28:07.050Z,4.09
2022-12-25T01:30:33.596Z,4.07
2022-12-25T01:33:00.026Z,4.02
2022-12-25T01:35:26.662Z,3.99
2022-12-25T01:37:53.457Z,3.97
2022-12-25T01:40:19.881Z,3.92
2022-12-25T01:42:46.237Z,3.89
2022-12-25T01:45:31.689Z,3.93
2022-12-25T01:47:58.429Z,3.91
2022-12-25T01:50:25.013Z,3.95
2022-12-25T01:52:51.830Z,3.93
2022-12-25T01:55:18.493Z,3.91
2022-12-25T01:57:45.461Z,3.88
2022-12-25T02:00:13.427Z,3.95
2022-12-25T02:02:41.237Z,3.88
2022-12-25T02:05:27.652Z,3.85
2022-12-25T02:07:55.429Z,3.86
2022-12-25T02:10:23.248Z,3.85
2022-12-25T02:12:50.072Z,3.83
2022-12-25T02:15:22.175Z,3.86
2022-12-25T02:17:55.408Z,3.86
2022-12-25T02:20:33.179Z,3.89
2022-12-25T02:23:30.261Z,3.89
2022-12-25T02:26:33.295Z,3.92
2022-12-25T02:29:05.073Z,3.87
2022-12-25T02:32:00.397Z,3.86
2022-12-25T02:34:36.082Z,3.87
2022-12-25T02:37:12.682Z,3.83
2022-12-25T02:40:03.532Z,3.82
2022-12-25T02:43:05.293Z,3.84
2022-12-25T02:46:14.324Z,3.85
2022-12-25T02:49:03.875Z,3.81
2022-12-25T02:51:54.304Z,3.80
2022-12-25T02:54:45.941Z,3.76
2022-12-25T02:57:35.341Z,3.70
2022-12-25T03:00:21.208Z,3.78
2022-12-25T03:03:07.677Z,3.81
2022-12-25T03:05:57.775Z,3.80
2022-12-25T03:08:30.203Z,3.80
2022-12-25T03:11:25.358Z,3.71
2022-12-25T03:13:55.605Z,3.63
2022-12-25T03:16:54.823Z,3.54
2022-12-25T03:19:43.200Z,3.55
2022-12-25T03:22:34.608Z,3.59
2022-12-25T03:25:19.467Z,3.68
2022-12-25T03:27:48.970Z,3.73
2022-12-25T03:30:34.298Z,3.75
2022-12-25T03:33:43.873Z,3.77
2022-12-25T03:36:28.582Z,3.82
2022-12-25T03:39:39.408Z,3.85
2022-12-25T03:42:34.288Z,3.85
2022-12-25T03:45:26.572Z,3.91
2022-12-25T03:48:13.443Z,3.97
2022-12-25T03:51:13.311Z,3.99
2022-12-25T03:54:03.134Z,4.04
2022-12-25T03:56:50.395Z,4.04
2022-12-25T03:59:39.827Z,4.02
2022-12-25T04:02:25.219Z,4.00
2022-12-25T04:05:10.740Z,3.98
2022-12-25T04:07:57.435Z,3.92
2022-12-25T04:10:43.069Z,3.93
2022-12-25T04:13:27.770Z,3.96
2022-12-25T04:16:13.398Z,4.04
2022-12-25T04:18:58.183Z,4.03
2022-12-25T04:21:43.996Z,4.07
2022-12-25T04:24:29.882Z,4.09
2022-12-25T04:27:15.313Z,4.11
2022-12-25T04:30:00.378Z,4.14
2022-12-25T04:32:45.590Z,4.12
2022-12-25T04:35:31.250Z,4.12
2022-12-25T04:37:57.592Z,4.14
2022-12-25T04:40:23.984Z,4.14
2022-12-25T04:42:51.698Z,4.16
2022-12-25T04:45:18.341Z,4.19
2022-12-25T04:47:44.694Z,4.19
2022-12-25T04:50:11.367Z,4.24
2022-12-25T04:52:39.573Z,4.29
2022-12-25T04:55:07.281Z,4.26
2022-12-25T04:57:34.438Z,4.29
2022-12-25T05:00:00.822Z,4.31
2022-12-25T05:02:27.550Z,4.30
2022-12-25T05:04:53.968Z,4.34
2022-12-25T05:07:20.547Z,4.35
2022-12-25T05:09:46.881Z,4.38
2022-12-25T05:12:13.609Z,4.39
2022-12-25T05:14:40.078Z,4.39
2022-12-25T05:17:07.954Z,4.39
2022-12-25T05:19:34.699Z,4.37
2022-12-25T05:22:01.220Z,4.31
2022-12-25T05:24:28.092Z,4.33
2022-12-25T05:26:54.768Z,4.30
2022-12-25T05:29:21.119Z,4.29
2022-12-25T05:31:47.689Z,4.29
2022-12-25T05:34:14.075Z,4.31
2022-12-25T05:36:40.463Z,4.31
2022-12-25T05:39:06.812Z,4.32
2022-12-25T05:41:34.674Z,4.41
2022-12-25T05:44:01.536Z,4.39
2022-12-25T05:46:27.975Z,4.43
2022-12-25T05:48:54.357Z,4.45
2022-12-25T05:51:20.880Z,4.43
2022-12-25T05:53:47.307Z,4.40
2022-12-25T05:56:13.715Z,4.38
2022-12-25T05:58:40.887Z,4.33
2022-12-25T06:01:25.292Z,4.40
2022-12-25T06:03:52.241Z,4.37
2022-12-25T06:06:18.720Z,4.30
2022-12-25T06:08:45.378Z,4.27
2022-12-25T06:11:14.584Z,4.27
2022-12-25T06:13:41.076Z,4.28
2022-12-25T06:16:10.545Z,4.31
2022-12-25T06:18:43.998Z,4.35
2022-12-25T06:21:12.459Z,4.35
2022-12-25T06:23:39.528Z,4.38
2022-12-25T06:26:08.333Z,4.34
2022-12-25T06:28:34.942Z,4.36
2022-12-25T06:31:09.394Z,4.39
2022-12-25T06:33:36.429Z,4.39
2022-12-25T06:36:17.376Z,4.38
2022-12-25T06:38:43.950Z,4.38
2022-12-25T06:41:30.339Z,4.40
2022-12-25T06:43:59.225Z,4.39
2022-12-25T06:46:28.765Z,4.40
2022-12-25T06:48:55.461Z,4.40
2022-12-25T06:51:24.461Z,4.35
2022-12-25T06:53:51.918Z,4.30
2022-12-25T06:56:24.291Z,4.29
2022-12-25T06:58:53.794Z,4.27
2022-12-25T07:01:24.394Z,4.28
2022-12-25T07:03:56.164Z,4.31
2022-12-25T07:06:22.910Z,4.26
2022-12-25T07:08:49.464Z,4.24
2022-12-25T07:11:16.251Z,4.33
2022-12-25T07:13:42.604Z,4.35
2022-12-25T07:16:11.543Z,4.35
2022-12-25T07:18:38.195Z,4.35
2022-12-25T07:21:18.985Z,4.36
2022-12-25T07:23:46.966Z,4.37
2022-12-25T07:26:14.297Z,4.39
2022-12-25T07:28:40.834Z,4.39
2022-12-25T07:31:10.834Z,4.41
2022-12-25T07:33:37.574Z,4.44
2022-12-25T07:36:05.595Z,4.49
2022-12-25T07:38:32.211Z,4.56
2022-12-25T07:40:58.565Z,4.57
2022-12-25T07:43:25.380Z,4.57
2022-12-25T07:45:56.941Z,4.58
2022-12-25T07:48:23.470Z,4.63
2022-12-25T07:50:55.899Z,4.67
2022-12-25T07:53:22.269Z,4.70
2022-12-25T07:55:48.620Z,4.66
2022-12-25T07:58:18.578Z,4.67
2022-12-25T08:00:49.442Z,4.73
2022-12-25T08:03:16.912Z,4.72
2022-12-25T08:05:43.425Z,4.74
2022-12-25T08:08:09.810Z,4.75
2022-12-25T08:10:36.316Z,4.79
2022-12-25T08:13:02.791Z,4.83
2022-12-25T08:15:30.455Z,4.87
2022-12-25T08:17:56.967Z,4.88
2022-12-25T08:20:23.303Z,4.92
2022-12-25T08:22:49.676Z,4.89
2022-12-25T08:25:16.079Z,4.95
2022-12-25T08:27:42.435Z,4.93
2022-12-25T08:30:09.235Z,4.96
2022-12-25T08:32:35.753Z,5.02
2022-12-25T08:35:02.103Z,5.04
2022-12-25T08:37:30.360Z,5.06
2022-12-25T08:39:56.686Z,5.10
2022-12-25T08:42:23.051Z,5.10
2022-12-25T08:44:49.380Z,5.16
2022-12-25T08:47:15.948Z,5.16
2022-12-25T08:49:42.280Z,5.16
2022-12-25T08:52:08.860Z,5.21
2022-12-25T08:54:36.372Z,5.22
2022-12-25T08:57:03.946Z,5.24
2022-12-25T08:59:30.367Z,5.24
2022-12-25T09:01:56.918Z,5.26
2022-12-25T09:04:23.344Z,5.27
2022-12-25T09:06:51.190Z,5.31
2022-12-25T09:09:17.562Z,5.36
2022-12-25T09:11:43.939Z,5.37
2022-12-25T09:14:10.309Z,5.37
2022-12-25T09:16:36.869Z,5.42
2022-12-25T09:19:03.319Z,5.44
2022-12-25T09:21:32.688Z,5.46
2022-12-25T09:23:59.027Z,5.43
2022-12-25T09:26:27.298Z,5.44
2022-12-25T09:28:53.683Z,5.50
2022-12-25T09:31:22.157Z,5.51
2022-12-25T09:33:49.882Z,5.50
2022-12-25T09:36:16.559Z,5.50
2022-12-25T09:38:42.969Z,5.46
2022-12-25T09:41:31.532Z,5.47
2022-12-25T09:44:14.988Z,5.43
2022-12-25T09:46:47.244Z,5.49
2022-12-25T09:49:35.447Z,5.47
2022-12-25T09:52:08.335Z,5.45
2022-12-25T09:54:47.495Z,5.43
2022-12-25T09:57:14.883Z,5.43
2022-12-25T09:59:47.361Z,5.41
2022-12-25T10:03:00.850Z,5.40
2022-12-25T10:05:39.478Z,5.30
2022-12-25T10:08:25.991Z,5.31
2022-12-25T10:11:27.915Z,5.37
2022-12-25T10:14:15.330Z,5.41
2022-12-25T10:16:58.391Z,5.46
2022-12-25T10:19:40.573Z,5.45
2022-12-25T10:22:19.564Z,5.47
2022-12-25T10:24:50.499Z,5.52
2022-12-25T10:27:30.203Z,5.55
2022-12-25T10:29:56.633Z,5.55
2022-12-25T10:32:23.212Z,5.56
2022-12-25T10:34:50.064Z,5.59
2022-12-25T10:37:16.739Z,5.63
2022-12-25T10:39:46.638Z,5.68
2022-12-25T10:42:22.518Z,5.71
2022-12-25T10:45:04.520Z,5.76
2022-12-25T10:47:34.026Z,5.76
2022-12-25T10:50:07.556Z,5.77
2022-12-25T10:52:34.139Z,5.82
2022-12-25T10:55:11.551Z,5.83
2022-12-25T10:57:45.530Z,5.87
2022-12-25T11:00:38.737Z,5.89
2022-12-25T11:03:05.195Z,5.89
2022-12-25T11:05:34.176Z,5.93
2022-12-25T11:08:02.389Z,6.01
2022-12-25T11:10:31.765Z,6.04
2022-12-25T11:12:59.931Z,6.03
2022-12-25T11:15:37.507Z,6.07
2022-12-25T11:18:17.497Z,6.09
2022-12-25T11:21:14.542Z,6.11
2022-12-25T11:23:45.682Z,6.13
2022-12-25T11:26:12.370Z,6.08
2022-12-25T11:28:41.008Z,6.10
2022-12-25T11:31:19.784Z,6.12
2022-12-25T11:33:53.759Z,6.13
2022-12-25T11:36:28.597Z,6.13
2022-12-25T11:38:55.470Z,6.14
2022-12-25T11:41:30.430Z,6.14
2022-12-25T11:43:59.401Z,6.14
2022-12-25T11:46:40.208Z,6.14
2022-12-25T11:49:12.062Z,6.13
2022-12-25T11:51:41.863Z,6.12
2022-12-25T11:54:20.460Z,6.11
2022-12-25T11:56:46.973Z,6.15
2022-12-25T11:59:24.019Z,6.13
2022-12-25T12:02:24.084Z,6.13
2022-12-25T12:05:02.257Z,6.11
2022-12-25T12:07:31.970Z,6.11
2022-12-25T12:10:09.417Z,6.09
2022-12-25T12:12:54.430Z,6.06
2022-12-25T12:15:40.996Z,6.12
2022-12-25T12:18:25.541Z,6.16
2022-12-25T12:21:17.797Z,6.22
2022-12-25T12:24:09.508Z,6.23
2022-12-25T12:26:40.850Z,6.23
2022-12-25T12:29:20.953Z,6.24
2022-12-25T12:31:50.438Z,6.26
2022-12-25T12:34:42.574Z,6.28
2022-12-25T12:37:38.321Z,6.32
2022-12-25T12:40:08.626Z,6.35
2022-12-25T12:42:45.201Z,6.34
2022-12-25T12:45:25.073Z,6.36
2022-12-25T12:47:53.036Z,6.38
2022-12-25T12:50:39.925Z,6.41
2022-12-25T12:53:21.592Z,6.42
2022-12-25T12:55:48.355Z,6.42
2022-12-25T12:58:33.639Z,6.43
2022-12-25T13:01:27.800Z,6.45
2022-12-25T13:04:10.341Z,6.45
2022-12-25T13:06:45.083Z,6.47
2022-12-25T13:09:34.632Z,6.50
2022-12-25T13:12:06.880Z,6.52
2022-12-25T13:14:34.116Z,6.52
2022-12-25T13:17:00.781Z,6.55
2022-12-25T13:19:29.141Z,6.56
2022-12-25T13:22:03.680Z,6.59
2022-12-25T13:24:35.269Z,6.63
2022-12-25T13:27:15.916Z,6.62
2022-12-25T13:29:42.583Z,6.66
2022-12-25T13:32:20.775Z,6.68
2022-12-25T13:34:48.111Z,6.68
2022-12-25T13:37:16.770Z,6.72
2022-12-25T13:39:51.839Z,6.73
2022-12-25T13:42:22.461Z,6.71
2022-12-25T13:44:52.993Z,6.74
2022-12-25T13:47:24.267Z,6.76
2022-12-25T13:49:52.782Z,6.79
2022-12-25T13:52:23.171Z,6.78
2022-12-25T13:55:14.416Z,6.78
2022-12-25T13:57:52.725Z,6.77
2022-12-25T14:00:39.409Z,6.75
2022-12-25T14:03:07.657Z,6.77
2022-12-25T14:05:42.312Z,6.77
2022-12-25T14:08:15.875Z,6.79
2022-12-25T14:10:48.207Z,6.73
2022-12-25T14:13:15.762Z,6.70
2022-12-25T14:15:44.858Z,6.71
2022-12-25T14:18:15.964Z,6.68
2022-12-25T14:21:07.886Z,6.64
2022-12-25T14:23:49.388Z,6.59
2022-12-25T14:26:22.052Z,6.60
2022-12-25T14:28:50.318Z,6.61
2022-12-25T14:31:17.063Z,6.60
2022-12-25T14:33:43.847Z,6.61
2022-12-25T14:36:13.180Z,6.59
2022-12-25T14:38:42.488Z,6.56
2022-12-25T14:41:34.482Z,6.56
2022-12-25T14:44:04.312Z,6.58
2022-12-25T14:46:32.796Z,6.59
2022-12-25T14:49:20.898Z,6.59
2022-12-25T14:51:47.301Z,6.55
2022-12-25T14:54:22.460Z,6.53
2022-12-25T14:56:51.544Z,6.52
2022-12-25T14:59:20.757Z,6.53
2022-12-25T15:01:54.268Z,6.53
2022-12-25T15:04:22.510Z,6.53
2022-12-25T15:06:57.233Z,6.53
2022-12-25T15:09:24.062Z,6.52
2022-12-25T15:11:52.057Z,6.51
2022-12-25T15:14:18.990Z,6.51
2022-12-25T15:16:47.960Z,6.51
2022-12-25T15:19:26.528Z,6.51
2022-12-25T15:21:55.615Z,6.51
2022-12-25T15:24:22.107Z,6.51
2022-12-25T15:26:48.550Z,6.50
2022-12-25T15:29:14.960Z,6.49
2022-12-25T15:31:42.039Z,6.52
2022-12-25T15:34:20.874Z,6.46
2022-12-25T15:36:48.021Z,6.46
2022-12-25T15:39:14.600Z,6.48
2022-12-25T15:41:59.933Z,6.44
2022-12-25T15:44:26.482Z,6.47
2022-12-25T15:46:52.856Z,6.48
2022-12-25T15:49:19.408Z,6.49
2022-12-25T15:51:46.422Z,6.51
2022-12-25T15:54:13.021Z,6.49
2022-12-25T15:56:45.453Z,6.51
2022-12-25T15:59:13.436Z,6.52
2022-12-25T16:01:43.352Z,6.49
2022-12-25T16:04:09.900Z,6.44
2022-12-25T16:06:36.228Z,6.42
2022-12-25T16:09:02.575Z,6.40
2022-12-25T16:11:28.927Z,6.43
2022-12-25T16:13:55.496Z,6.42
2022-12-25T16:16:22.669Z,6.43
2022-12-25T16:18:49.166Z,6.44
2022-12-25T16:21:19.052Z,6.42
2022-12-25T16:23:45.661Z,6.44
2022-12-25T16:26:12.232Z,6.41
2022-12-25T16:28:38.648Z,6.41
2022-12-25T16:31:05.184Z,6.37
2022-12-25T16:33:31.813Z,6.39
2022-12-25T16:35:58.197Z,6.37
2022-12-25T16:38:24.745Z,6.38
2022-12-25T16:40:59.402Z,6.33
2022-12-25T16:43:26.238Z,6.33
2022-12-25T16:45:52.670Z,6.38
2022-12-25T16:48:19.333Z,6.35
2022-12-25T16:50:45.902Z,6.32
2022-12-25T16:53:15.294Z,6.32
2022-12-25T16:55:41.645Z,6.33
2022-12-25T16:58:08.080Z,6.32
2022-12-25T17:00:34.429Z,6.35
2022-12-25T17:03:01.503Z,6.35
2022-12-25T17:05:28.149Z,6.37
2022-12-25T17:07:54.519Z,6.37
2022-12-25T17:10:21.388Z,6.38
2022-12-25T17:12:48.028Z,6.35
2022-12-25T17:15:14.511Z,6.37
2022-12-25T17:17:41.647Z,6.35
2022-12-25T17:20:08.411Z,6.31
2022-12-25T17:22:34.988Z,6.31
2022-12-25T17:25:01.343Z,6.30
2022-12-25T17:27:27.733Z,6.34
2022-12-25T17:29:54.066Z,6.30
2022-12-25T17:32:20.552Z,6.35
2022-12-25T17:34:46.988Z,6.32
2022-12-25T17:37:13.389Z,6.31
2022-12-25T17:39:39.747Z,6.33
2022-12-25T17:42:06.228Z,6.31
2022-12-25T17:44:32.576Z,6.27
2022-12-25T17:46:59.059Z,6.26
2022-12-25T17:49:25.721Z,6.26
2022-12-25T17:51:53.720Z,6.29
2022-12-25T17:54:20.238Z,6.29
2022-12-25T17:56:46.662Z,6.32
2022-12-25T17:59:18.405Z,6.33
2022-12-25T18:01:46.828Z,6.32
2022-12-25T18:04:13.438Z,6.29
2022-12-25T18:06:39.844Z,6.33
2022-12-25T18:09:07.329Z,6.32
2022-12-25T18:11:34.048Z,6.28
2022-12-25T18:14:05.369Z,6.28
2022-12-25T18:16:34.432Z,6.30
2022-12-25T18:19:01.206Z,6.32
2022-12-25T18:21:28.304Z,6.29
2022-12-25T18:23:54.818Z,6.26
2022-12-25T18:26:21.709Z,6.22
2022-12-25T18:28:49.573Z,6.26
2022-12-25T18:31:20.348Z,6.29
2022-12-25T18:33:48.174Z,6.24
2022-12-25T18:36:19.928Z,6.20
2022-12-25T18:38:47.461Z,6.19
2022-12-25T18:41:14.071Z,6.16
2022-12-25T18:43:53.736Z,6.18
2022-12-25T18:46:26.683Z,6.22
2022-12-25T18:48:56.086Z,6.24
2022-12-25T18:51:23.235Z,6.24
2022-12-25T18:53:49.621Z,6.19
2022-12-25T18:56:17.827Z,6.20
2022-12-25T18:58:45.474Z,6.17
2022-12-25T19:01:23.656Z,6.21
2022-12-25T19:03:51.706Z,6.24
2022-12-25T19:06:20.995Z,6.22
2022-12-25T19:08:48.123Z,6.23
2022-12-25T19:11:14.966Z,6.21
2022-12-25T19:13:41.427Z,6.21
2022-12-25T19:16:08.232Z,6.25
2022-12-25T19:18:34.793Z,6.24
2022-12-25T19:21:05.689Z,6.22
2022-12-25T19:23:32.588Z,6.23
2022-12-25T19:25:59.191Z,6.16
2022-12-25T19:28:25.762Z,6.18
2022-12-25T19:30:54.024Z,6.20
2022-12-25T19:33:22.080Z,6.19
2022-12-25T19:35:48.947Z,6.19
2022-12-25T19:38:15.745Z,6.16
2022-12-25T19:40:59.898Z,6.14
2022-12-25T19:43:31.786Z,6.10
2022-12-25T19:45:58.241Z,6.12
2022-12-25T19:48:25.006Z,6.09
2022-12-25T19:50:51.842Z,6.16
2022-12-25T19:53:18.524Z,6.19
2022-12-25T19:55:44.918Z,6.20
2022-12-25T19:58:11.827Z,6.23
2022-12-25T20:00:38.274Z,6.21
2022-12-25T20:03:04.844Z,6.22
2022-12-25T20:05:31.338Z,6.21
2022-12-25T20:07:57.808Z,6.21
2022-12-25T20:10:24.272Z,6.23
2022-12-25T20:12:50.869Z,6.22
2022-12-25T20:15:17.337Z,6.25
2022-12-25T20:17:43.890Z,6.24
2022-12-25T20:20:10.737Z,6.22
2022-12-25T20:22:37.174Z,6.19
2022-12-25T20:25:04.296Z,6.17
2022-12-25T20:27:30.818Z,6.20
2022-12-25T20:29:57.211Z,6.21
2022-12-25T20:32:23.825Z,6.25
2022-12-25T20:34:50.313Z,6.27
2022-12-25T20:37:16.813Z,6.33
2022-12-25T20:39:43.407Z,6.26
2022-12-25T20:42:10.238Z,6.24
2022-12-25T20:44:36.948Z,6.20
2022-12-25T20:47:03.808Z,6.16
2022-12-25T20:49:32.400Z,6.14
2022-12-25T20:52:04.872Z,6.15
2022-12-25T20:54:32.308Z,6.25
2022-12-25T20:56:58.868Z,6.25
2022-12-25T20:59:25.320Z,6.26
2022-12-25T21:01:54.115Z,6.21
2022-12-25T21:04:20.665Z,6.15
2022-12-25T21:06:47.156Z,6.14
2022-12-25T21:09:13.655Z,6.17
2022-12-25T21:11:40.144Z,6.16
2022-12-25T21:14:06.538Z,6.14
2022-12-25T21:16:33.329Z,6.14
2022-12-25T21:18:59.733Z,6.19
2022-12-25T21:21:26.174Z,6.18
2022-12-25T21:23:55.693Z,6.21
2022-12-25T21:26:27.422Z,6.23
2022-12-25T21:28:57.344Z,6.27
2022-12-25T21:31:24.502Z,6.32
2022-12-25T21:33:57.580Z,6.32
2022-12-25T21:36:30.004Z,6.31
2022-12-25T21:39:02.215Z,6.34
2022-12-25T21:41:30.713Z,6.36
2022-12-25T21:43:57.169Z,6.36
2022-12-25T21:46:24.415Z,6.37
2022-12-25T21:48:51.139Z,6.41
2022-12-25T21:51:42.432Z,6.42
2022-12-25T21:54:09.499Z,6.39
2022-12-25T21:56:43.491Z,6.40
2022-12-25T21:59:13.464Z,6.38
2022-12-25T22:01:39.973Z,6.29
2022-12-25T22:04:08.401Z,6.36
2022-12-25T22:06:58.411Z,6.36
2022-12-25T22:09:25.045Z,6.35
2022-12-25T22:12:10.214Z,6.39
2022-12-25T22:14:54.747Z,6.31
2022-12-25T22:17:46.438Z,6.24
2022-12-25T22:20:19.347Z,6.20
2022-12-25T22:22:46.299Z,6.25
2022-12-25T22:25:13.595Z,6.28
2022-12-25T22:27:41.680Z,6.27
2022-12-25T22:30:11.507Z,6.24
2022-12-25T22:32:38.329Z,6.28
2022-12-25T22:35:05.465Z,6.28
2022-12-25T22:37:32.376Z,6.28
2022-12-25T22:40:00.638Z,6.27
2022-12-25T22:42:27.268Z,6.19
2022-12-25T22:44:53.608Z,6.20
2022-12-25T22:47:19.993Z,6.18
2022-12-25T22:49:46.334Z,6.22
2022-12-25T22:52:12.843Z,6.22
2022-12-25T22:54:39.336Z,6.20
2022-12-25T22:57:06.146Z,6.24
2022-12-25T22:59:32.907Z,6.15
2022-12-25T23:02:00.443Z,6.12
2022-12-25T23:04:27.995Z,6.08
2022-12-25T23:06:54.605Z,6.12
2022-12-25T23:09:29.261Z,6.09
2022-12-25T23:11:57.006Z,6.05
2022-12-25T23:14:39.706Z,6.03
2022-12-25T23:17:30.262Z,6.01
2022-12-25T23:20:16.521Z,6.03
2022-12-25T23:23:01.517Z,6.00
2022-12-25T23:25:47.750Z,6.01
2022-12-25T23:28:14.430Z,5.95
2022-12-25T23:30:40.859Z,5.90
2022-12-25T23:33:07.421Z,5.91
2022-12-25T23:35:33.781Z,5.93
2022-12-25T23:38:00.191Z,5.93
2022-12-25T23:40:26.579Z,5.89
2022-12-25T23:42:53.073Z,5.84
2022-12-25T23:45:19.442Z,5.82
2022-12-25T23:47:45.907Z,5.79
2022-12-25T23:50:12.271Z,5.77
2022-12-25T23:52:38.797Z,5.81
2022-12-25T23:55:05.715Z,5.78
2022-12-25T23:57:32.126Z,5.79
2022-12-25T23:59:58.680Z,5.77
